Wetterdaten: Woche 27.12.21 - 02.01.22 (KW52)
Datum Zeit Temp. Aussen Temp. o. S. Temp +5cm Feuchte Auss Luftdruck Regen Sonnenschein Regendauer Solar Windben Empfang
27.12.2021 00:00 3,5 C 2,8 C 0,6 C 94 % 1003,5 hPa 0,0 l/m 0,00 h 0,00 h 0 W/m 14,7 km/h (3 Bft) 95,44 %
27.12.2021 01:00 3,5 C 2,8 C 0,6 C 96 % 1003,2 hPa 0,4 l/m 0,00 h 0,20 h 0 W/m 14,0 km/h (3 Bft) 97,20 %
27.12.2021 02:00 3,4 C 2,8 C 0,8 C 97 % 1002,9 hPa 0,2 l/m 0,00 h 0,50 h 0 W/m 15,8 km/h (3 Bft) 98,57 %
27.12.2021 03:00 3,4 C 2,8 C 1,1 C 98 % 1002,6 hPa 0,2 l/m 0,00 h 0,70 h 0 W/m 13,9 km/h (3 Bft) 96,94 %
27.12.2021 04:00 3,6 C 3,1 C 1,1 C 98 % 1002,3 hPa 0,0 l/m 0,00 h 0,00 h 0 W/m 15,7 km/h (3 Bft) 97,09 %
27.12.2021 05:00 3,7 C 3,3 C 1,7 C 98 % 1001,9 hPa 0,2 l/m 0,00 h 0,00 h 0 W/m 14,6 km/h (3 Bft) 97,58 %
27.12.2021 06:00 3,9 C 3,3 C 1,7 C 98 % 1001,5 hPa 0,0 l/m 0,00 h 0,00 h 0 W/m 13,8 km/h (3 Bft) 95,92 %
27.12.2021 07:00 4,1 C 3,6 C 2,1 C 99 % 1001,3 hPa 0,0 l/m 0,00 h 0,00 h 0 W/m 14,0 km/h (3 Bft) 96,73 %
27.12.2021 08:00 4,3 C 3,9 C 2,2 C 99 % 1001,1 hPa 0,0 l/m 0,00 h 0,00 h 10 W/m 14,4 km/h (3 Bft) 95,72 %
27.12.2021 09:00 4,4 C 4,0 C 2,3 C 99 % 1000,8 hPa 0,0 l/m 0,00 h 0,00 h 35 W/m 13,8 km/h (3 Bft) 95,71 %
27.12.2021 10:00 4,9 C 4,8 C 3,0 C 99 % 1000,6 hPa 0,0 l/m 0,07 h 0,00 h 68 W/m 14,6 km/h (3 Bft) 97,74 %
27.12.2021 11:00 5,8 C 6,0 C 4,0 C 99 % 1000,2 hPa 0,0 l/m 0,07 h 0,00 h 101 W/m 16,4 km/h (3 Bft) 97,15 %
27.12.2021 12:00 6,5 C 6,5 C 4,5 C 98 % 999,8 hPa 0,0 l/m 0,00 h 0,00 h 93 W/m 17,9 km/h (3 Bft) 96,75 %
27.12.2021 13:00 7,0 C 6,8 C 5,1 C 97 % 999,1 hPa 0,0 l/m 0,00 h 0,00 h 76 W/m 13,6 km/h (3 Bft) 98,30 %
27.12.2021 14:00 7,4 C 7,2 C 5,6 C 97 % 998,9 hPa 0,0 l/m 0,00 h 0,00 h 64 W/m 14,3 km/h (3 Bft) 95,25 %
27.12.2021 15:00 7,6 C 7,2 C 5,6 C 96 % 998,7 hPa 0,0 l/m 0,00 h 0,00 h 32 W/m 14,3 km/h (3 Bft) 97,47 %
27.12.2021 16:00 7,7 C 7,2 C 5,6 C 96 % 998,4 hPa 0,0 l/m 0,00 h 0,10 h 10 W/m 14,8 km/h (3 Bft) 97,84 %
27.12.2021 17:00 7,6 C 6,7 C 5,0 C 96 % 998,4 hPa 0,0 l/m 0,00 h 0,00 h 0 W/m 15,2 km/h (3 Bft) 98,04 %
27.12.2021 18:00 7,3 C 6,7 C 5,0 C 96 % 998,3 hPa 0,0 l/m 0,00 h 0,00 h 0 W/m 17,1 km/h (3 Bft) 95,00 %
27.12.2021 19:00 7,3 C 6,7 C 5,0 C 96 % 998,1 hPa 0,0 l/m 0,00 h 0,00 h 0 W/m 18,4 km/h (3 Bft) 97,52 %
27.12.2021 20:00 7,5 C 7,0 C 5,5 C 96 % 998,0 hPa 0,0 l/m 0,00 h 0,00 h 0 W/m 19,5 km/h (3 Bft) 98,38 %
27.12.2021 21:00 7,5 C 6,6 C 5,1 C 96 % 997,8 hPa 0,2 l/m 0,00 h 0,27 h 0 W/m 17,3 km/h (3 Bft) 97,30 %
27.12.2021 22:00 7,4 C 6,7 C 5,0 C 97 % 997,7 hPa 0,4 l/m 0,00 h 0,40 h 0 W/m 17,4 km/h (3 Bft) 97,09 %
27.12.2021 23:00 7,1 C 6,1 C 4,8 C 98 % 997,2 hPa 0,2 l/m 0,00 h 0,00 h 0 W/m 16,4 km/h (3 Bft) 98,83 %
28.12.2021 00:00 6,6 C 5,7 C 4,4 C 98 % 997,0 hPa 0,0 l/m 0,00 h 0,00 h 0 W/m 13,3 km/h (3 Bft) 96,50 %
28.12.2021 01:00 6,4 C 5,6 C 4,4 C 99 % 996,3 hPa 0,0 l/m 0,00 h 0,00 h 0 W/m 12,7 km/h (3 Bft) 97,34 %
28.12.2021 02:00 6,3 C 5,8 C 4,5 C 99 % 995,9 hPa 0,0 l/m 0,00 h 0,00 h 0 W/m 12,3 km/h (3 Bft) 98,79 %
28.12.2021 03:00 6,8 C 6,3 C 5,0 C 99 % 995,5 hPa 0,0 l/m 0,00 h 0,00 h 0 W/m 16,3 km/h (3 Bft) 93,78 %
28.12.2021 04:00 7,3 C 6,7 C 5,5 C 99 % 995,1 hPa 0,4 l/m 0,00 h 0,57 h 0 W/m 16,8 km/h (3 Bft) 99,36 %
28.12.2021 05:00 7,5 C 6,7 C 5,6 C 99 % 994,5 hPa 0,0 l/m 0,00 h 0,00 h 0 W/m 15,7 km/h (3 Bft) 96,20 %
28.12.2021 06:00 7,9 C 7,3 C 6,1 C 99 % 994,1 hPa 0,0 l/m 0,00 h 0,00 h 0 W/m 16,3 km/h (3 Bft) 96,16 %
28.12.2021 07:00 8,1 C 7,2 C 6,2 C 99 % 993,9 hPa 0,0 l/m 0,00 h 0,00 h 0 W/m 15,9 km/h (3 Bft) 96,45 %
28.12.2021 08:00 8,1 C 7,5 C 6,5 C 99 % 993,7 hPa 0,0 l/m 0,00 h 0,00 h 8 W/m 17,8 km/h (3 Bft) 98,36 %
28.12.2021 09:00 8,1 C 7,6 C 6,6 C 99 % 993,9 hPa 0,0 l/m 0,03 h 0,00 h 24 W/m 15,7 km/h (3 Bft) 95,75 %
28.12.2021 10:00 8,4 C 7,9 C 7,0 C 99 % 993,6 hPa 0,2 l/m 0,00 h 0,07 h 40 W/m 15,1 km/h (3 Bft) 99,57 %
28.12.2021 11:00 8,8 C 8,3 C 7,4 C 99 % 993,0 hPa 0,2 l/m 0,00 h 0,10 h 60 W/m 15,2 km/h (3 Bft) 96,59 %
28.12.2021 12:00 9,5 C 9,2 C 8,1 C 99 % 992,0 hPa 0,6 l/m 0,00 h 0,33 h 60 W/m 16,3 km/h (3 Bft) 98,08 %
28.12.2021 13:00 9,9 C 9,3 C 8,1 C 98 % 991,5 hPa 0,2 l/m 0,00 h 0,17 h 29 W/m 24,8 km/h (4 Bft) 98,29 %
28.12.2021 14:00 10,2 C 9,5 C 7,4 C 90 % 991,6 hPa 0,0 l/m 0,20 h 0,00 h 74 W/m 23,7 km/h (4 Bft) 97,16 %
28.12.2021 15:00 10,1 C 9,1 C 6,9 C 85 % 992,0 hPa 0,2 l/m 0,00 h 0,27 h 18 W/m 24,6 km/h (4 Bft) 97,01 %
28.12.2021 16:00 8,0 C 6,7 C 5,1 C 92 % 992,4 hPa 1,6 l/m 0,00 h 0,90 h 1 W/m 18,3 km/h (3 Bft) 98,01 %
28.12.2021 17:00 7,1 C 6,1 C 4,6 C 95 % 992,4 hPa 3,0 l/m 0,00 h 1,00 h 0 W/m 6,8 km/h (2 Bft) 96,06 %
28.12.2021 18:00 7,0 C 6,1 C 5,0 C 97 % 992,7 hPa 3,8 l/m 0,00 h 1,00 h 0 W/m 4,7 km/h (1 Bft) 97,67 %
28.12.2021 19:00 7,2 C 6,4 C 5,2 C 98 % 993,6 hPa 0,2 l/m 0,00 h 0,10 h 0 W/m 6,2 km/h (2 Bft) 96,71 %
28.12.2021 20:00 7,9 C 7,2 C 5,9 C 99 % 994,6 hPa 0,8 l/m 0,00 h 0,33 h 0 W/m 6,9 km/h (2 Bft) 99,15 %
28.12.2021 21:00 8,4 C 7,7 C 6,6 C 99 % 995,6 hPa 0,6 l/m 0,00 h 0,07 h 0 W/m 16,3 km/h (3 Bft) 96,31 %
28.12.2021 22:00 8,7 C 7,8 C 6,9 C 99 % 997,0 hPa 0,0 l/m 0,00 h 0,33 h 0 W/m 20,7 km/h (4 Bft) 98,15 %
28.12.2021 23:00 8,8 C 8,0 C 7,2 C 99 % 998,6 hPa 0,0 l/m 0,00 h 0,20 h 0 W/m 20,9 km/h (4 Bft) 98,29 %
29.12.2021 00:00 8,7 C 7,8 C 7,2 C 99 % 999,9 hPa 0,2 l/m 0,00 h 0,17 h 0 W/m 18,8 km/h (3 Bft) 95,89 %
29.12.2021 01:00 8,7 C 7,8 C 7,2 C 99 % 1000,9 hPa 0,2 l/m 0,00 h 0,17 h 0 W/m 16,8 km/h (3 Bft) 98,65 %
29.12.2021 02:00 8,7 C 7,8 C 7,2 C 99 % 1002,3 hPa 0,8 l/m 0,00 h 0,40 h 0 W/m 16,0 km/h (3 Bft) 98,15 %
29.12.2021 03:00 8,6 C 7,8 C 7,2 C 99 % 1003,5 hPa 0,4 l/m 0,00 h 0,17 h 0 W/m 13,0 km/h (3 Bft) 96,04 %
29.12.2021 04:00 8,4 C 7,8 C 7,2 C 100 % 1004,2 hPa 0,6 l/m 0,00 h 0,30 h 0 W/m 13,5 km/h (3 Bft) 98,57 %
29.12.2021 05:00 8,3 C 7,8 C 7,2 C 100 % 1005,0 hPa 0,2 l/m 0,00 h 0,00 h 0 W/m 13,1 km/h (3 Bft) 97,50 %
29.12.2021 06:00 8,3 C 7,7 C 7,2 C 100 % 1005,8 hPa 0,0 l/m 0,00 h 0,07 h 0 W/m 11,8 km/h (2 Bft) 96,41 %
29.12.2021 07:00 8,2 C 7,3 C 7,2 C 99 % 1006,3 hPa 0,0 l/m 0,00 h 0,10 h 0 W/m 12,3 km/h (3 Bft) 99,22 %
29.12.2021 08:00 8,2 C 7,2 C 7,2 C 99 % 1007,0 hPa 0,0 l/m 0,00 h 0,00 h 6 W/m 7,0 km/h (2 Bft) 94,65 %
29.12.2021 09:00 8,2 C 7,7 C 7,2 C 99 % 1007,5 hPa 0,0 l/m 0,00 h 0,00 h 22 W/m 8,9 km/h (2 Bft) 98,22 %
29.12.2021 10:00 8,4 C 8,3 C 7,4 C 98 % 1007,8 hPa 0,0 l/m 0,03 h 0,00 h 77 W/m 9,1 km/h (2 Bft) 97,86 %
29.12.2021 11:00 8,9 C 8,8 C 7,8 C 96 % 1007,7 hPa 0,0 l/m 0,13 h 0,00 h 91 W/m 12,6 km/h (3 Bft) 96,79 %
29.12.2021 12:00 9,6 C 9,8 C 7,9 C 94 % 1007,5 hPa 0,0 l/m 0,17 h 0,00 h 126 W/m 13,8 km/h (3 Bft) 97,42 %
29.12.2021 13:00 9,7 C 9,2 C 8,2 C 93 % 1007,3 hPa 0,0 l/m 0,00 h 0,17 h 55 W/m 10,3 km/h (2 Bft) 98,60 %
29.12.2021 14:00 9,5 C 8,9 C 7,8 C 94 % 1006,9 hPa 0,0 l/m 0,00 h 0,27 h 26 W/m 9,1 km/h (2 Bft) 96,22 %
29.12.2021 15:00 9,1 C 8,3 C 7,4 C 94 % 1006,4 hPa 0,4 l/m 0,00 h 0,33 h 10 W/m 15,0 km/h (3 Bft) 98,30 %
29.12.2021 16:00 8,8 C 7,8 C 7,2 C 96 % 1005,9 hPa 1,6 l/m 0,00 h 0,63 h 0 W/m 17,5 km/h (3 Bft) 97,14 %
29.12.2021 17:00 8,8 C 7,8 C 7,4 C 98 % 1005,8 hPa 1,6 l/m 0,00 h 0,33 h 0 W/m 14,4 km/h (3 Bft) 97,79 %
29.12.2021 18:00 9,3 C 8,6 C 8,0 C 99 % 1005,8 hPa 0,8 l/m 0,00 h 0,00 h 0 W/m 13,1 km/h (3 Bft) 95,96 %
29.12.2021 19:00 10,8 C 10,0 C 9,3 C 100 % 1006,1 hPa 0,0 l/m 0,00 h 0,00 h 0 W/m 14,2 km/h (3 Bft) 97,95 %
29.12.2021 20:00 11,7 C 10,8 C 10,3 C 100 % 1006,7 hPa 0,2 l/m 0,00 h 0,10 h 0 W/m 16,3 km/h (3 Bft) 96,37 %
29.12.2021 21:00 12,2 C 11,7 C 10,6 C 100 % 1008,0 hPa 0,0 l/m 0,00 h 0,00 h 0 W/m 14,4 km/h (3 Bft) 98,29 %
29.12.2021 22:00 12,3 C 11,7 C 10,6 C 100 % 1009,4 hPa 0,0 l/m 0,00 h 0,00 h 0 W/m 17,2 km/h (3 Bft) 97,51 %
29.12.2021 23:00 12,2 C 11,5 C 10,4 C 98 % 1010,6 hPa 0,0 l/m 0,00 h 0,00 h 0 W/m 14,8 km/h (3 Bft) 97,01 %
30.12.2021 00:00 11,8 C 10,9 C 9,8 C 96 % 1011,3 hPa 0,0 l/m 0,00 h 0,00 h 0 W/m 12,2 km/h (2 Bft) 94,49 %
30.12.2021 01:00 11,5 C 10,6 C 9,4 C 96 % 1011,9 hPa 0,0 l/m 0,00 h 0,00 h 0 W/m 12,8 km/h (3 Bft) 99,64 %
30.12.2021 02:00 11,5 C 10,6 C 9,4 C 96 % 1012,4 hPa 0,0 l/m 0,00 h 0,00 h 0 W/m 13,0 km/h (3 Bft) 96,13 %
30.12.2021 03:00 11,8 C 11,1 C 9,9 C 97 % 1012,5 hPa 0,0 l/m 0,00 h 0,00 h 0 W/m 14,7 km/h (3 Bft) 97,86 %
30.12.2021 04:00 12,3 C 11,7 C 10,6 C 98 % 1012,8 hPa 0,0 l/m 0,00 h 0,10 h 0 W/m 14,5 km/h (3 Bft) 98,03 %
30.12.2021 05:00 12,4 C 11,6 C 10,8 C 99 % 1012,9 hPa 1,0 l/m 0,00 h 0,23 h 0 W/m 13,9 km/h (3 Bft) 96,38 %
30.12.2021 06:00 12,9 C 12,1 C 11,5 C 100 % 1013,0 hPa 0,0 l/m 0,00 h 0,00 h 0 W/m 18,8 km/h (3 Bft) 97,86 %
30.12.2021 07:00 13,4 C 12,8 C 11,8 C 100 % 1013,4 hPa 0,0 l/m 0,00 h 0,00 h 0 W/m 21,8 km/h (4 Bft) 98,64 %
30.12.2021 08:00 13,6 C 12,8 C 12,0 C 99 % 1014,1 hPa 0,0 l/m 0,00 h 0,00 h 0 W/m 17,0 km/h (3 Bft) 93,65 %
30.12.2021 09:00 13,4 C 12,8 C 12,2 C 99 % 1014,9 hPa 0,0 l/m 0,00 h 0,00 h 8 W/m 14,8 km/h (3 Bft) 99,65 %
30.12.2021 10:00 13,8 C 13,4 C 12,2 C 99 % 1015,3 hPa 0,0 l/m 0,00 h 0,00 h 42 W/m 17,5 km/h (3 Bft) 96,44 %
30.12.2021 11:00 14,3 C 14,0 C 12,6 C 97 % 1015,7 hPa 0,0 l/m 0,00 h 0,03 h 71 W/m 18,9 km/h (3 Bft) 96,98 %
30.12.2021 12:00 14,5 C 14,1 C 12,8 C 94 % 1015,7 hPa 0,0 l/m 0,00 h 0,00 h 73 W/m 20,0 km/h (4 Bft) 98,45 %
30.12.2021 13:00 14,7 C 14,2 C 12,8 C 92 % 1015,5 hPa 0,0 l/m 0,00 h 0,00 h 69 W/m 20,2 km/h (4 Bft) 96,93 %
30.12.2021 14:00 14,8 C 14,4 C 12,8 C 91 % 1015,8 hPa 0,0 l/m 0,00 h 0,00 h 71 W/m 21,1 km/h (4 Bft) 97,44 %
30.12.2021 15:00 14,6 C 13,9 C 12,4 C 91 % 1016,5 hPa 0,0 l/m 0,00 h 0,00 h 25 W/m 17,3 km/h (3 Bft) 99,29 %
30.12.2021 16:00 14,5 C 13,9 C 12,1 C 91 % 1016,9 hPa 0,0 l/m 0,00 h 0,00 h 9 W/m 20,2 km/h (4 Bft) 95,51 %
30.12.2021 17:00 14,3 C 13,6 C 11,7 C 92 % 1017,5 hPa 0,0 l/m 0,00 h 0,00 h 0 W/m 23,4 km/h (4 Bft) 98,43 %
30.12.2021 18:00 14,0 C 13,3 C 11,2 C 95 % 1018,1 hPa 0,0 l/m 0,00 h 0,00 h 0 W/m 18,5 km/h (3 Bft) 98,60 %
30.12.2021 19:00 14,1 C 13,3 C 11,6 C 94 % 1018,2 hPa 0,0 l/m 0,00 h 0,00 h 0 W/m 18,0 km/h (3 Bft) 95,94 %
30.12.2021 20:00 14,0 C 13,1 C 11,2 C 95 % 1018,6 hPa 0,0 l/m 0,00 h 0,00 h 0 W/m 17,9 km/h (3 Bft) 98,86 %
30.12.2021 21:00 13,6 C 12,8 C 11,1 C 97 % 1019,0 hPa 0,0 l/m 0,00 h 0,00 h 0 W/m 18,1 km/h (3 Bft) 98,01 %
30.12.2021 22:00 13,7 C 12,8 C 11,1 C 96 % 1019,5 hPa 0,0 l/m 0,00 h 0,00 h 0 W/m 17,9 km/h (3 Bft) 96,01 %
30.12.2021 23:00 13,5 C 12,6 C 10,9 C 95 % 1019,6 hPa 0,0 l/m 0,00 h 0,23 h 0 W/m 20,8 km/h (4 Bft) 99,14 %
31.12.2021 00:00 13,3 C 12,8 C 10,8 C 95 % 1019,4 hPa 0,0 l/m 0,00 h 0,00 h 0 W/m 22,3 km/h (4 Bft) 95,66 %
31.12.2021 01:00 13,6 C 12,8 C 11,1 C 92 % 1019,1 hPa 0,0 l/m 0,00 h 0,00 h 0 W/m 21,6 km/h (4 Bft) 97,01 %
31.12.2021 02:00 13,8 C 13,0 C 11,1 C 89 % 1019,1 hPa 0,0 l/m 0,00 h 0,00 h 0 W/m 20,6 km/h (4 Bft) 98,72 %
31.12.2021 03:00 13,8 C 12,9 C 10,8 C 88 % 1019,2 hPa 0,0 l/m 0,00 h 0,00 h 0 W/m 17,9 km/h (3 Bft) 97,13 %
31.12.2021 04:00 13,8 C 12,8 C 10,6 C 88 % 1019,0 hPa 0,0 l/m 0,00 h 0,00 h 0 W/m 18,6 km/h (3 Bft) 97,37 %
31.12.2021 05:00 13,5 C 12,6 C 10,2 C 89 % 1018,8 hPa 0,0 l/m 0,00 h 0,00 h 0 W/m 15,4 km/h (3 Bft) 99,15 %
31.12.2021 06:00 13,2 C 12,2 C 10,0 C 89 % 1018,7 hPa 0,0 l/m 0,00 h 0,00 h 0 W/m 18,4 km/h (3 Bft) 95,51 %
31.12.2021 07:00 13,1 C 12,2 C 9,9 C 89 % 1018,6 hPa 0,0 l/m 0,00 h 0,00 h 0 W/m 22,8 km/h (4 Bft) 98,65 %
31.12.2021 08:00 12,5 C 11,7 C 9,2 C 89 % 1018,6 hPa 0,0 l/m 0,00 h 0,00 h 10 W/m 19,0 km/h (3 Bft) 98,29 %
31.12.2021 09:00 12,2 C 11,7 C 8,9 C 90 % 1018,9 hPa 0,0 l/m 0,00 h 0,00 h 28 W/m 18,0 km/h (3 Bft) 95,80 %
31.12.2021 10:00 12,3 C 12,1 C 9,3 C 89 % 1019,1 hPa 0,0 l/m 0,00 h 0,00 h 74 W/m 13,2 km/h (3 Bft) 98,65 %
31.12.2021 11:00 13,0 C 12,8 C 9,9 C 87 % 1019,1 hPa 0,0 l/m 0,00 h 0,00 h 90 W/m 18,6 km/h (3 Bft) 98,22 %
31.12.2021 12:00 13,4 C 13,2 C 10,0 C 85 % 1018,5 hPa 0,0 l/m 0,13 h 0,00 h 97 W/m 22,7 km/h (4 Bft) 95,87 %
31.12.2021 13:00 13,8 C 13,9 C 10,1 C 84 % 1018,0 hPa 0,0 l/m 0,17 h 0,00 h 101 W/m 21,0 km/h (4 Bft) 98,93 %
31.12.2021 14:00 14,1 C 14,0 C 10,3 C 84 % 1017,7 hPa 0,0 l/m 0,47 h 0,00 h 115 W/m 18,9 km/h (3 Bft) 97,52 %
31.12.2021 15:00 14,2 C 13,5 C 10,3 C 85 % 1018,5 hPa 0,0 l/m 0,23 h 0,00 h 53 W/m 16,6 km/h (3 Bft) 96,09 %
31.12.2021 16:00 13,8 C 12,8 C 10,0 C 87 % 1019,3 hPa 0,0 l/m 0,00 h 0,00 h 6 W/m 14,4 km/h (3 Bft) 99,51 %
31.12.2021 17:00 13,6 C 12,8 C 9,4 C 88 % 1019,7 hPa 0,0 l/m 0,00 h 0,00 h 0 W/m 14,7 km/h (3 Bft) 95,73 %
31.12.2021 18:00 13,1 C 12,2 C 9,4 C 92 % 1020,5 hPa 0,0 l/m 0,00 h 0,00 h 0 W/m 14,9 km/h (3 Bft) 96,81 %
31.12.2021 19:00 13,1 C 12,2 C 9,4 C 93 % 1021,4 hPa 0,0 l/m 0,00 h 0,00 h 0 W/m 15,9 km/h (3 Bft) 97,79 %
31.12.2021 20:00 13,1 C 12,2 C 9,4 C 93 % 1022,2 hPa 0,0 l/m 0,00 h 0,00 h 0 W/m 16,6 km/h (3 Bft) 96,51 %
31.12.2021 21:00 13,1 C 12,2 C 9,4 C 92 % 1022,6 hPa 0,0 l/m 0,00 h 0,00 h 0 W/m 14,7 km/h (3 Bft) 96,31 %
31.12.2021 22:00 12,9 C 12,2 C 9,4 C 94 % 1023,0 hPa 0,0 l/m 0,00 h 0,00 h 0 W/m 13,5 km/h (3 Bft) 98,22 %
31.12.2021 23:00 12,9 C 12,2 C 9,4 C 93 % 1023,7 hPa 0,0 l/m 0,00 h 0,00 h 0 W/m 14,1 km/h (3 Bft) 95,53 %
01.01.2022 00:00 13,0 C 12,2 C 9,4 C 93 % 1023,8 hPa 0,0 l/m 0,00 h 0,00 h 0 W/m 14,1 km/h (3 Bft) 99,38 %
01.01.2022 01:00 13,0 C 12,2 C 9,4 C 93 % 1023,9 hPa 0,0 l/m 0,00 h 0,00 h 0 W/m 13,3 km/h (3 Bft) 96,44 %
01.01.2022 02:00 12,9 C 12,2 C 9,4 C 94 % 1024,1 hPa 0,0 l/m 0,00 h 0,00 h 0 W/m 10,7 km/h (2 Bft) 97,47 %
01.01.2022 03:00 12,8 C 12,2 C 9,4 C 92 % 1024,3 hPa 0,0 l/m 0,00 h 0,00 h 0 W/m 8,5 km/h (2 Bft) 97,10 %
01.01.2022 04:00 12,8 C 12,2 C 9,4 C 91 % 1024,3 hPa 0,0 l/m 0,00 h 0,00 h 0 W/m 11,7 km/h (2 Bft) 96,83 %
01.01.2022 05:00 12,9 C 12,2 C 9,4 C 91 % 1024,1 hPa 0,0 l/m 0,00 h 0,00 h 0 W/m 12,9 km/h (3 Bft) 96,80 %
01.01.2022 06:00 12,8 C 12,2 C 9,4 C 91 % 1024,3 hPa 0,0 l/m 0,00 h 0,00 h 0 W/m 13,1 km/h (3 Bft) 99,57 %
01.01.2022 07:00 12,8 C 12,2 C 9,4 C 90 % 1024,4 hPa 0,0 l/m 0,00 h 0,00 h 0 W/m 13,3 km/h (3 Bft) 95,30 %
01.01.2022 08:00 12,7 C 12,1 C 9,0 C 89 % 1024,7 hPa 0,0 l/m 0,00 h 0,00 h 6 W/m 13,1 km/h (3 Bft) 99,29 %
01.01.2022 09:00 12,6 C 12,1 C 8,9 C 89 % 1025,1 hPa 0,0 l/m 0,00 h 0,00 h 33 W/m 10,6 km/h (2 Bft) 97,45 %
01.01.2022 10:00 12,9 C 12,9 C 9,5 C 88 % 1025,0 hPa 0,0 l/m 0,50 h 0,00 h 103 W/m 11,8 km/h (2 Bft) 96,29 %
01.01.2022 11:00 13,6 C 13,6 C 10,0 C 86 % 1024,9 hPa 0,0 l/m 0,13 h 0,00 h 113 W/m 11,8 km/h (2 Bft) 98,36 %
01.01.2022 12:00 14,4 C 15,4 C 10,6 C 85 % 1024,1 hPa 0,0 l/m 0,60 h 0,00 h 172 W/m 14,8 km/h (3 Bft) 97,79 %
01.01.2022 13:00 15,3 C 17,3 C 11,0 C 83 % 1023,5 hPa 0,0 l/m 0,73 h 0,00 h 192 W/m 14,3 km/h (3 Bft) 95,87 %
01.01.2022 14:00 14,8 C 14,4 C 10,6 C 85 % 1023,3 hPa 0,0 l/m 0,17 h 0,00 h 104 W/m 14,4 km/h (3 Bft) 98,93 %
01.01.2022 15:00 14,2 C 13,3 C 10,0 C 87 % 1023,0 hPa 0,0 l/m 0,00 h 0,00 h 40 W/m 14,2 km/h (3 Bft) 95,67 %
01.01.2022 16:00 13,4 C 12,4 C 9,2 C 88 % 1023,1 hPa 0,0 l/m 0,00 h 0,00 h 11 W/m 12,9 km/h (3 Bft) 97,58 %
01.01.2022 17:00 12,5 C 11,5 C 8,5 C 91 % 1022,7 hPa 0,0 l/m 0,00 h 0,00 h 0 W/m 15,6 km/h (3 Bft) 98,22 %
01.01.2022 18:00 11,8 C 11,1 C 8,3 C 92 % 1021,8 hPa 0,0 l/m 0,00 h 0,00 h 0 W/m 17,5 km/h (3 Bft) 97,36 %
01.01.2022 19:00 11,5 C 10,7 C 7,9 C 93 % 1021,5 hPa 0,0 l/m 0,00 h 0,00 h 0 W/m 20,0 km/h (4 Bft) 97,37 %
01.01.2022 20:00 11,1 C 10,3 C 7,8 C 94 % 1021,3 hPa 0,0 l/m 0,00 h 0,00 h 0 W/m 18,3 km/h (3 Bft) 98,65 %
01.01.2022 21:00 10,8 C 10,0 C 7,8 C 95 % 1020,8 hPa 0,0 l/m 0,00 h 0,00 h 0 W/m 17,5 km/h (3 Bft) 96,30 %
01.01.2022 22:00 10,7 C 10,0 C 7,5 C 95 % 1020,2 hPa 0,0 l/m 0,00 h 0,00 h 0 W/m 16,3 km/h (3 Bft) 99,05 %
01.01.2022 23:00 10,4 C 9,5 C 7,2 C 95 % 1019,6 hPa 0,0 l/m 0,00 h 0,00 h 0 W/m 17,1 km/h (3 Bft) 97,11 %
02.01.2022 00:00 10,2 C 9,4 C 7,2 C 95 % 1019,3 hPa 0,0 l/m 0,00 h 0,00 h 0 W/m 16,8 km/h (3 Bft) 96,59 %
02.01.2022 01:00 10,2 C 9,4 C 7,2 C 95 % 1019,0 hPa 0,0 l/m 0,00 h 0,00 h 0 W/m 12,8 km/h (3 Bft) 98,51 %
02.01.2022 02:00 10,1 C 9,4 C 7,2 C 95 % 1018,9 hPa 0,0 l/m 0,00 h 0,07 h 0 W/m 10,2 km/h (2 Bft) 97,79 %
02.01.2022 03:00 10,1 C 9,4 C 7,2 C 94 % 1018,4 hPa 0,0 l/m 0,00 h 0,03 h 0 W/m 10,1 km/h (2 Bft) 96,65 %
02.01.2022 04:00 10,1 C 9,4 C 7,2 C 94 % 1017,7 hPa 0,0 l/m 0,00 h 0,20 h 0 W/m 11,9 km/h (2 Bft) 99,57 %
02.01.2022 05:00 10,1 C 9,2 C 6,7 C 95 % 1017,2 hPa 0,4 l/m 0,00 h 0,90 h 0 W/m 14,3 km/h (3 Bft) 95,17 %
02.01.2022 06:00 9,9 C 9,3 C 6,7 C 96 % 1016,3 hPa 0,2 l/m 0,00 h 0,70 h 0 W/m 15,1 km/h (3 Bft) 98,72 %
02.01.2022 07:00 9,9 C 9,4 C 6,7 C 97 % 1015,3 hPa 0,2 l/m 0,00 h 0,13 h 0 W/m 17,8 km/h (3 Bft) 98,15 %
02.01.2022 08:00 10,0 C 9,4 C 6,9 C 96 % 1013,9 hPa 0,0 l/m 0,00 h 0,13 h 0 W/m 20,0 km/h (4 Bft) 96,86 %
02.01.2022 09:00 10,3 C 10,0 C 7,2 C 95 % 1012,7 hPa 0,0 l/m 0,00 h 0,07 h 5 W/m 20,4 km/h (4 Bft) 97,29 %
02.01.2022 10:00 10,8 C 10,5 C 7,3 C 91 % 1013,0 hPa 0,0 l/m 0,00 h 0,00 h 21 W/m 14,2 km/h (3 Bft) 98,08 %
02.01.2022 11:00 13,0 C 12,6 C 9,1 C 83 % 1013,1 hPa 0,0 l/m 0,03 h 0,00 h 72 W/m 26,5 km/h (4 Bft) 95,39 %
02.01.2022 12:00 13,3 C 12,9 C 9,5 C 83 % 1013,0 hPa 0,0 l/m 0,10 h 0,00 h 93 W/m 23,8 km/h (4 Bft) 99,00 %
02.01.2022 13:00 13,0 C 12,2 C 9,1 C 84 % 1012,7 hPa 0,0 l/m 0,00 h 0,00 h 41 W/m 22,5 km/h (4 Bft) 96,58 %
02.01.2022 14:00 13,3 C 13,0 C 9,4 C 84 % 1012,6 hPa 0,0 l/m 0,20 h 0,00 h 102 W/m 20,8 km/h (4 Bft) 97,72 %
02.01.2022 15:00 13,0 C 12,3 C 9,0 C 85 % 1012,8 hPa 0,0 l/m 0,07 h 0,00 h 43 W/m 21,2 km/h (4 Bft) 98,08 %
02.01.2022 16:00 12,7 C 11,8 C 8,8 C 86 % 1012,9 hPa 0,0 l/m 0,03 h 0,00 h 12 W/m 20,5 km/h (4 Bft) 97,51 %
02.01.2022 17:00 12,3 C 11,3 C 8,2 C 87 % 1012,7 hPa 0,0 l/m 0,00 h 0,00 h 0 W/m 17,6 km/h (3 Bft) 97,03 %
02.01.2022 18:00 11,7 C 10,3 C 7,4 C 92 % 1012,5 hPa 2,6 l/m 0,00 h 0,60 h 0 W/m 18,0 km/h (3 Bft) 98,08 %
02.01.2022 19:00 10,9 C 9,4 C 7,2 C 96 % 1012,2 hPa 4,0 l/m 0,00 h 1,00 h 0 W/m 13,0 km/h (3 Bft) 96,66 %
02.01.2022 20:00 10,6 C 9,4 C 7,2 C 97 % 1011,3 hPa 3,0 l/m 0,00 h 0,77 h 0 W/m 14,7 km/h (3 Bft) 98,33 %
02.01.2022 21:00 10,2 C 9,0 C 6,6 C 96 % 1010,7 hPa 4,4 l/m 0,00 h 0,47 h 0 W/m 24,5 km/h (4 Bft) 97,63 %
02.01.2022 22:00 10,3 C 9,4 C 6,7 C 94 % 1010,8 hPa 0,2 l/m 0,00 h 0,13 h 0 W/m 26,6 km/h (4 Bft) 98,79 %
02.01.2022 23:00 10,3 C 9,4 C 6,7 C 93 % 1011,5 hPa 0,0 l/m 0,00 h 0,27 h 0 W/m 26,4 km/h (4 Bft) 96,23 %
Min-Datum _ 27.12.21 27.12.21 27.12.21 28.12.21 28.12.21 - - - - 28.12.21 30.12.21
_ Min-Zeit 01:42 00:00 00:00 15:42 13:04 - - - - 19:02 00:58
Minimum _ 3,4 C 2,8 C 0,6 C 82 % 991,2 hPa - - - - 0,0 km/h (0 Bft) 44,74 %
Max-Datum _ 01.01.22 01.01.22 30.12.21 28.12.21 01.01.22 02.01.22 29.12.21 28.12.21 31.12.21 02.01.22 27.12.21
_ Max-Zeit 13:20 13:20 10:56 12:10 10:56 21:06 12:08 18:40 12:58 21:50 00:02
Maximum _ 15,4 C 20,0 C 12,8 C 100 % 1025,3 hPa 4,4 l/m 0,07 h 0,08 h 325 W/m 57,9 km/h
S-SO (7 Bft)
100,00 %
Durchschnitt _ 10,5 C 9,9 C 7,9 C 94 % 1010,4 hPa #36,6 l/m #4:16 h #16:52 h 55 W/m 16,0 km/h (3 Bft) 97,36 %
© 2022 W. Hausmann